sensor_id;sensor_type;location;lat;lon;timestamp;temperature;humidity
14170;DHT22;63889;50.596;8.690;2023-12-28T00:02:02;7.70;99.90
14170;DHT22;63889;50.596;8.690;2023-12-28T00:04:28;7.70;99.90
14170;DHT22;63889;50.596;8.690;2023-12-28T00:06:53;7.70;99.90
14170;DHT22;63889;50.596;8.690;2023-12-28T00:09:19;7.80;99.90
14170;DHT22;63889;50.596;8.690;2023-12-28T00:11:45;7.80;99.90
14170;DHT22;63889;50.596;8.690;2023-12-28T00:14:10;7.80;99.90
14170;DHT22;63889;50.596;8.690;2023-12-28T00:16:36;7.80;99.90
14170;DHT22;63889;50.596;8.690;2023-12-28T00:19:04;7.80;99.90
14170;DHT22;63889;50.596;8.690;2023-12-28T00:21:30;7.80;99.90
14170;DHT22;63889;50.596;8.690;2023-12-28T00:23:56;7.80;99.90
14170;DHT22;63889;50.596;8.690;2023-12-28T00:26:21;7.90;99.90
14170;DHT22;63889;50.596;8.690;2023-12-28T00:28:47;7.80;99.90
14170;DHT22;63889;50.596;8.690;2023-12-28T00:31:13;7.80;99.90
14170;DHT22;63889;50.596;8.690;2023-12-28T00:33:39;7.70;99.90
14170;DHT22;63889;50.596;8.690;2023-12-28T00:36:04;7.80;99.90
14170;DHT22;63889;50.596;8.690;2023-12-28T00:38:30;7.80;99.90
14170;DHT22;63889;50.596;8.690;2023-12-28T00:40:56;7.90;99.90
14170;DHT22;63889;50.596;8.690;2023-12-28T00:43:22;7.90;99.90
14170;DHT22;63889;50.596;8.690;2023-12-28T00:45:47;7.90;99.90
14170;DHT22;63889;50.596;8.690;2023-12-28T00:48:13;7.90;99.90
14170;DHT22;63889;50.596;8.690;2023-12-28T00:50:39;8.00;99.90
14170;DHT22;63889;50.596;8.690;2023-12-28T00:53:04;7.90;99.90
14170;DHT22;63889;50.596;8.690;2023-12-28T00:55:30;7.90;99.90
14170;DHT22;63889;50.596;8.690;2023-12-28T00:57:56;8.00;99.90
14170;DHT22;63889;50.596;8.690;2023-12-28T01:00:21;8.00;99.90
14170;DHT22;63889;50.596;8.690;2023-12-28T01:02:47;8.00;99.90
14170;DHT22;63889;50.596;8.690;2023-12-28T01:05:13;8.00;99.90
14170;DHT22;63889;50.596;8.690;2023-12-28T01:07:39;8.20;99.90
14170;DHT22;63889;50.596;8.690;2023-12-28T01:10:05;8.20;99.90
14170;DHT22;63889;50.596;8.690;2023-12-28T01:12:31;8.20;99.90
14170;DHT22;63889;50.596;8.690;2023-12-28T01:14:56;8.10;99.90
14170;DHT22;63889;50.596;8.690;2023-12-28T01:17:22;8.20;99.90
14170;DHT22;63889;50.596;8.690;2023-12-28T01:19:47;8.30;99.90
14170;DHT22;63889;50.596;8.690;2023-12-28T01:22:13;8.30;99.90
14170;DHT22;63889;50.596;8.690;2023-12-28T01:24:38;8.30;99.90
14170;DHT22;63889;50.596;8.690;2023-12-28T01:27:04;8.40;99.90
14170;DHT22;63889;50.596;8.690;2023-12-28T01:29:30;8.40;99.90
14170;DHT22;63889;50.596;8.690;2023-12-28T01:31:55;8.40;99.90
14170;DHT22;63889;50.596;8.690;2023-12-28T01:34:21;8.40;99.90
14170;DHT22;63889;50.596;8.690;2023-12-28T01:36:46;8.40;99.90
14170;DHT22;63889;50.596;8.690;2023-12-28T01:39:12;8.50;99.90
14170;DHT22;63889;50.596;8.690;2023-12-28T01:41:38;8.40;99.90
14170;DHT22;63889;50.596;8.690;2023-12-28T01:44:03;8.40;99.90
14170;DHT22;63889;50.596;8.690;2023-12-28T01:46:29;8.40;99.90
14170;DHT22;63889;50.596;8.690;2023-12-28T01:48:55;8.60;99.90
14170;DHT22;63889;50.596;8.690;2023-12-28T01:51:22;8.60;99.90
14170;DHT22;63889;50.596;8.690;2023-12-28T01:53:49;8.70;99.90
14170;DHT22;63889;50.596;8.690;2023-12-28T01:56:18;8.70;99.90
14170;DHT22;63889;50.596;8.690;2023-12-28T01:58:44;8.60;99.90
14170;DHT22;63889;50.596;8.690;2023-12-28T02:01:11;8.60;99.90
14170;DHT22;63889;50.596;8.690;2023-12-28T02:03:37;8.60;99.90
14170;DHT22;63889;50.596;8.690;2023-12-28T02:06:05;8.50;99.90
14170;DHT22;63889;50.596;8.690;2023-12-28T02:08:31;8.50;99.90
14170;DHT22;63889;50.596;8.690;2023-12-28T02:10:57;8.40;99.90
14170;DHT22;63889;50.596;8.690;2023-12-28T02:13:23;8.50;99.90
14170;DHT22;63889;50.596;8.690;2023-12-28T02:15:59;8.50;99.90
14170;DHT22;63889;50.596;8.690;2023-12-28T02:18:32;8.50;99.90
14170;DHT22;63889;50.596;8.690;2023-12-28T02:21:00;8.50;99.90
14170;DHT22;63889;50.596;8.690;2023-12-28T02:23:27;8.50;99.90
14170;DHT22;63889;50.596;8.690;2023-12-28T02:25:53;8.50;99.90
14170;DHT22;63889;50.596;8.690;2023-12-28T02:28:18;8.50;99.90
14170;DHT22;63889;50.596;8.690;2023-12-28T02:30:44;8.60;99.90
14170;DHT22;63889;50.596;8.690;2023-12-28T02:33:58;8.70;99.90
14170;DHT22;63889;50.596;8.690;2023-12-28T02:36:23;8.70;99.90
14170;DHT22;63889;50.596;8.690;2023-12-28T02:38:51;8.60;99.90
14170;DHT22;63889;50.596;8.690;2023-12-28T02:41:17;8.70;99.90
14170;DHT22;63889;50.596;8.690;2023-12-28T02:43:44;8.60;99.90
14170;DHT22;63889;50.596;8.690;2023-12-28T02:46:09;8.70;99.90
14170;DHT22;63889;50.596;8.690;2023-12-28T02:48:35;8.70;99.90
14170;DHT22;63889;50.596;8.690;2023-12-28T02:51:01;8.70;99.90
14170;DHT22;63889;50.596;8.690;2023-12-28T02:53:26;8.70;99.90
14170;DHT22;63889;50.596;8.690;2023-12-28T02:55:52;8.70;99.90
14170;DHT22;63889;50.596;8.690;2023-12-28T02:58:17;8.60;99.90
14170;DHT22;63889;50.596;8.690;2023-12-28T03:00:43;8.60;99.90
14170;DHT22;63889;50.596;8.690;2023-12-28T03:03:08;8.60;99.90
14170;DHT22;63889;50.596;8.690;2023-12-28T03:05:34;8.60;99.90
14170;DHT22;63889;50.596;8.690;2023-12-28T03:07:59;8.60;99.90
14170;DHT22;63889;50.596;8.690;2023-12-28T03:10:25;8.60;99.90
14170;DHT22;63889;50.596;8.690;2023-12-28T03:12:50;8.70;99.90
14170;DHT22;63889;50.596;8.690;2023-12-28T03:15:16;8.70;99.90
14170;DHT22;63889;50.596;8.690;2023-12-28T03:17:42;8.70;99.90
14170;DHT22;63889;50.596;8.690;2023-12-28T03:20:08;8.70;99.90
14170;DHT22;63889;50.596;8.690;2023-12-28T03:22:33;8.70;99.90
14170;DHT22;63889;50.596;8.690;2023-12-28T03:25:00;8.90;99.90
14170;DHT22;63889;50.596;8.690;2023-12-28T03:27:26;9.00;99.90
14170;DHT22;63889;50.596;8.690;2023-12-28T03:29:51;9.00;99.90
14170;DHT22;63889;50.596;8.690;2023-12-28T03:32:17;9.10;99.90
14170;DHT22;63889;50.596;8.690;2023-12-28T03:34:42;9.20;99.90
14170;DHT22;63889;50.596;8.690;2023-12-28T03:37:08;9.10;99.90
14170;DHT22;63889;50.596;8.690;2023-12-28T03:39:35;9.10;99.90
14170;DHT22;63889;50.596;8.690;2023-12-28T03:42:00;9.10;99.90
14170;DHT22;63889;50.596;8.690;2023-12-28T03:44:26;9.10;99.90
14170;DHT22;63889;50.596;8.690;2023-12-28T03:46:51;9.10;99.90
14170;DHT22;63889;50.596;8.690;2023-12-28T03:49:18;9.10;99.90
14170;DHT22;63889;50.596;8.690;2023-12-28T03:51:44;9.10;99.90
14170;DHT22;63889;50.596;8.690;2023-12-28T03:54:09;9.10;99.90
14170;DHT22;63889;50.596;8.690;2023-12-28T03:56:35;9.10;99.90
14170;DHT22;63889;50.596;8.690;2023-12-28T03:59:01;9.10;99.90
14170;DHT22;63889;50.596;8.690;2023-12-28T04:01:27;8.90;99.90
14170;DHT22;63889;50.596;8.690;2023-12-28T04:03:52;8.90;99.90
14170;DHT22;63889;50.596;8.690;2023-12-28T04:06:18;9.00;99.90
14170;DHT22;63889;50.596;8.690;2023-12-28T04:08:43;9.00;99.90
14170;DHT22;63889;50.596;8.690;2023-12-28T04:11:10;9.00;99.90
14170;DHT22;63889;50.596;8.690;2023-12-28T04:13:36;9.10;99.90
14170;DHT22;63889;50.596;8.690;2023-12-28T04:16:02;9.10;99.90
14170;DHT22;63889;50.596;8.690;2023-12-28T04:18:27;9.20;99.90
14170;DHT22;63889;50.596;8.690;2023-12-28T04:20:53;9.30;99.90
14170;DHT22;63889;50.596;8.690;2023-12-28T04:23:19;9.20;99.90
14170;DHT22;63889;50.596;8.690;2023-12-28T04:25:45;9.20;99.90
14170;DHT22;63889;50.596;8.690;2023-12-28T04:28:10;9.30;99.90
14170;DHT22;63889;50.596;8.690;2023-12-28T04:30:36;9.20;99.90
14170;DHT22;63889;50.596;8.690;2023-12-28T04:33:01;9.30;99.90
14170;DHT22;63889;50.596;8.690;2023-12-28T04:35:27;9.30;99.90
14170;DHT22;63889;50.596;8.690;2023-12-28T04:37:54;9.40;99.90
14170;DHT22;63889;50.596;8.690;2023-12-28T04:40:19;9.40;99.90
14170;DHT22;63889;50.596;8.690;2023-12-28T04:42:45;9.40;99.90
14170;DHT22;63889;50.596;8.690;2023-12-28T04:45:10;9.50;99.90
14170;DHT22;63889;50.596;8.690;2023-12-28T04:47:36;9.60;99.90
14170;DHT22;63889;50.596;8.690;2023-12-28T04:50:03;9.60;99.90
14170;DHT22;63889;50.596;8.690;2023-12-28T04:52:29;9.60;99.90
14170;DHT22;63889;50.596;8.690;2023-12-28T04:54:54;9.60;99.90
14170;DHT22;63889;50.596;8.690;2023-12-28T04:57:20;9.60;99.90
14170;DHT22;63889;50.596;8.690;2023-12-28T04:59:46;9.60;99.90
14170;DHT22;63889;50.596;8.690;2023-12-28T05:02:11;9.70;99.90
14170;DHT22;63889;50.596;8.690;2023-12-28T05:04:37;9.70;99.90
14170;DHT22;63889;50.596;8.690;2023-12-28T05:07:04;9.80;99.90
14170;DHT22;63889;50.596;8.690;2023-12-28T05:09:29;9.70;99.90
14170;DHT22;63889;50.596;8.690;2023-12-28T05:11:55;9.70;99.90
14170;DHT22;63889;50.596;8.690;2023-12-28T05:14:21;9.70;99.90
14170;DHT22;63889;50.596;8.690;2023-12-28T05:16:46;9.70;99.90
14170;DHT22;63889;50.596;8.690;2023-12-28T05:19:12;9.70;99.90
14170;DHT22;63889;50.596;8.690;2023-12-28T05:21:37;9.70;99.90
14170;DHT22;63889;50.596;8.690;2023-12-28T05:24:03;9.70;99.90
14170;DHT22;63889;50.596;8.690;2023-12-28T05:26:29;9.70;99.90
14170;DHT22;63889;50.596;8.690;2023-12-28T05:28:54;9.80;99.90
14170;DHT22;63889;50.596;8.690;2023-12-28T05:31:20;9.70;99.90
14170;DHT22;63889;50.596;8.690;2023-12-28T05:33:45;9.70;99.90
14170;DHT22;63889;50.596;8.690;2023-12-28T05:36:11;9.70;99.90
14170;DHT22;63889;50.596;8.690;2023-12-28T05:38:37;9.70;99.90
14170;DHT22;63889;50.596;8.690;2023-12-28T05:41:02;9.60;99.90
14170;DHT22;63889;50.596;8.690;2023-12-28T05:43:28;9.60;99.90
14170;DHT22;63889;50.596;8.690;2023-12-28T05:45:53;9.70;99.90
14170;DHT22;63889;50.596;8.690;2023-12-28T05:48:19;9.70;99.90
14170;DHT22;63889;50.596;8.690;2023-12-28T05:50:44;9.70;99.90
14170;DHT22;63889;50.596;8.690;2023-12-28T05:53:10;9.70;99.90
14170;DHT22;63889;50.596;8.690;2023-12-28T05:55:43;9.80;99.90
14170;DHT22;63889;50.596;8.690;2023-12-28T05:58:09;9.80;99.90
14170;DHT22;63889;50.596;8.690;2023-12-28T06:00:34;9.80;99.90
14170;DHT22;63889;50.596;8.690;2023-12-28T06:03:05;9.90;99.90
14170;DHT22;63889;50.596;8.690;2023-12-28T06:05:31;9.90;99.90
14170;DHT22;63889;50.596;8.690;2023-12-28T06:07:57;9.90;99.90
14170;DHT22;63889;50.596;8.690;2023-12-28T06:10:22;9.70;99.90
14170;DHT22;63889;50.596;8.690;2023-12-28T06:12:49;9.80;99.90
14170;DHT22;63889;50.596;8.690;2023-12-28T06:15:15;9.90;99.90
14170;DHT22;63889;50.596;8.690;2023-12-28T06:17:40;9.70;99.90
14170;DHT22;63889;50.596;8.690;2023-12-28T06:20:06;9.80;99.90
14170;DHT22;63889;50.596;8.690;2023-12-28T06:22:33;9.80;99.90
14170;DHT22;63889;50.596;8.690;2023-12-28T06:24:59;9.90;99.90
14170;DHT22;63889;50.596;8.690;2023-12-28T06:27:24;10.00;99.90
14170;DHT22;63889;50.596;8.690;2023-12-28T06:29:50;10.00;99.90
14170;DHT22;63889;50.596;8.690;2023-12-28T06:32:15;9.90;99.90
14170;DHT22;63889;50.596;8.690;2023-12-28T06:34:41;9.90;99.90
14170;DHT22;63889;50.596;8.690;2023-12-28T06:37:07;9.90;99.90
14170;DHT22;63889;50.596;8.690;2023-12-28T06:39:32;9.90;99.90
14170;DHT22;63889;50.596;8.690;2023-12-28T06:41:58;9.90;99.90
14170;DHT22;63889;50.596;8.690;2023-12-28T06:44:23;9.80;99.90
14170;DHT22;63889;50.596;8.690;2023-12-28T06:46:49;9.80;99.90
14170;DHT22;63889;50.596;8.690;2023-12-28T06:49:14;9.80;99.90
14170;DHT22;63889;50.596;8.690;2023-12-28T06:51:40;9.80;99.90
14170;DHT22;63889;50.596;8.690;2023-12-28T06:54:08;9.90;99.90
14170;DHT22;63889;50.596;8.690;2023-12-28T06:56:33;9.90;99.90
14170;DHT22;63889;50.596;8.690;2023-12-28T06:58:59;9.90;99.90
14170;DHT22;63889;50.596;8.690;2023-12-28T07:01:24;9.90;99.90
14170;DHT22;63889;50.596;8.690;2023-12-28T07:03:50;9.90;99.90
14170;DHT22;63889;50.596;8.690;2023-12-28T07:06:15;9.90;99.90
14170;DHT22;63889;50.596;8.690;2023-12-28T07:08:41;9.90;99.90
14170;DHT22;63889;50.596;8.690;2023-12-28T07:11:09;9.80;99.90
14170;DHT22;63889;50.596;8.690;2023-12-28T07:13:35;9.50;99.90
14170;DHT22;63889;50.596;8.690;2023-12-28T07:16:00;9.40;99.90
14170;DHT22;63889;50.596;8.690;2023-12-28T07:18:27;9.30;99.90
14170;DHT22;63889;50.596;8.690;2023-12-28T07:20:52;9.00;99.90
14170;DHT22;63889;50.596;8.690;2023-12-28T07:23:18;8.80;99.90
14170;DHT22;63889;50.596;8.690;2023-12-28T07:25:43;8.60;99.90
14170;DHT22;63889;50.596;8.690;2023-12-28T07:28:09;8.60;99.90
14170;DHT22;63889;50.596;8.690;2023-12-28T07:30:35;8.60;99.90
14170;DHT22;63889;50.596;8.690;2023-12-28T07:33:01;8.60;99.90
14170;DHT22;63889;50.596;8.690;2023-12-28T07:35:26;8.70;99.90
14170;DHT22;63889;50.596;8.690;2023-12-28T07:37:52;8.70;99.90
14170;DHT22;63889;50.596;8.690;2023-12-28T07:40:18;8.70;99.90
14170;DHT22;63889;50.596;8.690;2023-12-28T07:42:43;8.90;99.90
14170;DHT22;63889;50.596;8.690;2023-12-28T07:45:09;9.00;99.90
14170;DHT22;63889;50.596;8.690;2023-12-28T07:47:34;9.20;99.90
14170;DHT22;63889;50.596;8.690;2023-12-28T07:50:00;9.20;99.90
14170;DHT22;63889;50.596;8.690;2023-12-28T07:52:26;9.20;99.90
14170;DHT22;63889;50.596;8.690;2023-12-28T07:54:51;9.40;99.90
14170;DHT22;63889;50.596;8.690;2023-12-28T07:57:17;9.50;99.90
14170;DHT22;63889;50.596;8.690;2023-12-28T07:59:43;9.50;99.90
14170;DHT22;63889;50.596;8.690;2023-12-28T08:02:09;9.40;99.90
14170;DHT22;63889;50.596;8.690;2023-12-28T08:04:34;9.50;99.90
14170;DHT22;63889;50.596;8.690;2023-12-28T08:07:00;9.40;99.90
14170;DHT22;63889;50.596;8.690;2023-12-28T08:09:26;9.50;99.90
14170;DHT22;63889;50.596;8.690;2023-12-28T08:11:52;9.50;99.90
14170;DHT22;63889;50.596;8.690;2023-12-28T08:14:18;9.40;99.90
14170;DHT22;63889;50.596;8.690;2023-12-28T08:16:44;9.40;99.90
14170;DHT22;63889;50.596;8.690;2023-12-28T08:19:10;9.40;99.90
14170;DHT22;63889;50.596;8.690;2023-12-28T08:21:36;9.40;99.90
14170;DHT22;63889;50.596;8.690;2023-12-28T08:24:02;9.40;99.90
14170;DHT22;63889;50.596;8.690;2023-12-28T08:26:27;9.50;99.90
14170;DHT22;63889;50.596;8.690;2023-12-28T08:28:53;9.50;99.90
14170;DHT22;63889;50.596;8.690;2023-12-28T08:31:18;9.50;99.90
14170;DHT22;63889;50.596;8.690;2023-12-28T08:33:44;9.40;99.90
14170;DHT22;63889;50.596;8.690;2023-12-28T08:36:10;9.40;99.90
14170;DHT22;63889;50.596;8.690;2023-12-28T08:38:36;9.50;99.90
14170;DHT22;63889;50.596;8.690;2023-12-28T08:41:02;9.50;99.90
14170;DHT22;63889;50.596;8.690;2023-12-28T08:43:29;9.50;99.90
14170;DHT22;63889;50.596;8.690;2023-12-28T08:45:55;9.40;99.90
14170;DHT22;63889;50.596;8.690;2023-12-28T08:48:20;9.50;99.90
14170;DHT22;63889;50.596;8.690;2023-12-28T08:50:46;9.60;99.90
14170;DHT22;63889;50.596;8.690;2023-12-28T08:53:12;9.60;99.90
14170;DHT22;63889;50.596;8.690;2023-12-28T08:55:37;9.60;99.90
14170;DHT22;63889;50.596;8.690;2023-12-28T08:58:03;9.60;99.90
14170;DHT22;63889;50.596;8.690;2023-12-28T09:00:28;9.70;99.90
14170;DHT22;63889;50.596;8.690;2023-12-28T09:02:54;9.60;99.90
14170;DHT22;63889;50.596;8.690;2023-12-28T09:05:20;9.60;99.90
14170;DHT22;63889;50.596;8.690;2023-12-28T09:07:46;9.70;99.90
14170;DHT22;63889;50.596;8.690;2023-12-28T09:10:12;9.70;99.90
14170;DHT22;63889;50.596;8.690;2023-12-28T09:12:40;9.70;99.90
14170;DHT22;63889;50.596;8.690;2023-12-28T09:15:06;9.90;99.90
14170;DHT22;63889;50.596;8.690;2023-12-28T09:17:32;9.80;99.90
14170;DHT22;63889;50.596;8.690;2023-12-28T09:19:58;9.80;99.90
14170;DHT22;63889;50.596;8.690;2023-12-28T09:22:24;9.80;99.90
14170;DHT22;63889;50.596;8.690;2023-12-28T09:24:49;9.80;99.90
14170;DHT22;63889;50.596;8.690;2023-12-28T09:27:15;9.90;99.90
14170;DHT22;63889;50.596;8.690;2023-12-28T09:29:40;10.00;99.90
14170;DHT22;63889;50.596;8.690;2023-12-28T09:32:06;10.00;99.90
14170;DHT22;63889;50.596;8.690;2023-12-28T09:34:32;10.00;99.90
14170;DHT22;63889;50.596;8.690;2023-12-28T09:36:58;10.10;99.90
14170;DHT22;63889;50.596;8.690;2023-12-28T09:39:24;10.10;99.90
14170;DHT22;63889;50.596;8.690;2023-12-28T09:41:58;10.20;99.90
14170;DHT22;63889;50.596;8.690;2023-12-28T09:44:25;10.20;99.90
14170;DHT22;63889;50.596;8.690;2023-12-28T09:46:50;10.20;99.90
14170;DHT22;63889;50.596;8.690;2023-12-28T09:49:20;10.30;99.90
14170;DHT22;63889;50.596;8.690;2023-12-28T09:51:47;10.40;99.90
14170;DHT22;63889;50.596;8.690;2023-12-28T09:54:12;10.40;99.90
14170;DHT22;63889;50.596;8.690;2023-12-28T09:56:40;10.50;99.90
14170;DHT22;63889;50.596;8.690;2023-12-28T09:59:06;10.50;99.90
14170;DHT22;63889;50.596;8.690;2023-12-28T10:01:34;10.60;99.90
14170;DHT22;63889;50.596;8.690;2023-12-28T10:04:00;10.60;99.90
14170;DHT22;63889;50.596;8.690;2023-12-28T10:06:28;10.70;99.90
14170;DHT22;63889;50.596;8.690;2023-12-28T10:08:53;10.90;99.90
14170;DHT22;63889;50.596;8.690;2023-12-28T10:11:21;11.00;99.90
14170;DHT22;63889;50.596;8.690;2023-12-28T10:13:48;11.20;99.90
14170;DHT22;63889;50.596;8.690;2023-12-28T10:16:15;11.30;99.90
14170;DHT22;63889;50.596;8.690;2023-12-28T10:18:44;11.40;99.90
14170;DHT22;63889;50.596;8.690;2023-12-28T10:21:11;11.50;99.90
14170;DHT22;63889;50.596;8.690;2023-12-28T10:23:37;11.60;99.90
14170;DHT22;63889;50.596;8.690;2023-12-28T10:26:04;11.70;99.90
14170;DHT22;63889;50.596;8.690;2023-12-28T10:28:35;11.70;99.90
14170;DHT22;63889;50.596;8.690;2023-12-28T10:31:03;11.80;99.90
14170;DHT22;63889;50.596;8.690;2023-12-28T10:33:34;11.90;99.90
14170;DHT22;63889;50.596;8.690;2023-12-28T10:36:07;11.90;99.90
14170;DHT22;63889;50.596;8.690;2023-12-28T10:38:35;12.10;99.90
14170;DHT22;63889;50.596;8.690;2023-12-28T10:41:06;12.10;99.90
14170;DHT22;63889;50.596;8.690;2023-12-28T10:43:46;12.10;99.90
14170;DHT22;63889;50.596;8.690;2023-12-28T10:46:27;12.20;99.90
14170;DHT22;63889;50.596;8.690;2023-12-28T10:48:58;12.10;99.90
14170;DHT22;63889;50.596;8.690;2023-12-28T10:51:25;12.10;99.90
14170;DHT22;63889;50.596;8.690;2023-12-28T10:56:42;12.10;99.90
14170;DHT22;63889;50.596;8.690;2023-12-28T11:02:11;12.10;99.90
14170;DHT22;63889;50.596;8.690;2023-12-28T11:04:46;12.10;99.90
14170;DHT22;63889;50.596;8.690;2023-12-28T11:07:15;12.10;99.90
14170;DHT22;63889;50.596;8.690;2023-12-28T11:09:44;12.10;99.90
14170;DHT22;63889;50.596;8.690;2023-12-28T11:12:11;12.10;99.90
14170;DHT22;63889;50.596;8.690;2023-12-28T11:14:40;12.10;99.90
14170;DHT22;63889;50.596;8.690;2023-12-28T11:17:06;12.20;99.90
14170;DHT22;63889;50.596;8.690;2023-12-28T11:19:34;12.20;99.90
14170;DHT22;63889;50.596;8.690;2023-12-28T11:22:01;12.20;99.90
14170;DHT22;63889;50.596;8.690;2023-12-28T11:24:28;12.10;99.90
14170;DHT22;63889;50.596;8.690;2023-12-28T11:26:55;12.20;99.90
14170;DHT22;63889;50.596;8.690;2023-12-28T11:29:21;12.40;99.90
14170;DHT22;63889;50.596;8.690;2023-12-28T11:31:51;12.50;99.90
14170;DHT22;63889;50.596;8.690;2023-12-28T11:34:17;12.70;99.90
14170;DHT22;63889;50.596;8.690;2023-12-28T11:36:49;12.80;99.90
14170;DHT22;63889;50.596;8.690;2023-12-28T11:39:25;12.80;99.90
14170;DHT22;63889;50.596;8.690;2023-12-28T11:41:59;12.90;99.90
14170;DHT22;63889;50.596;8.690;2023-12-28T11:44:26;13.10;99.90
14170;DHT22;63889;50.596;8.690;2023-12-28T11:46:52;13.20;99.90
14170;DHT22;63889;50.596;8.690;2023-12-28T11:49:25;13.20;99.90
14170;DHT22;63889;50.596;8.690;2023-12-28T11:51:55;13.10;99.90
14170;DHT22;63889;50.596;8.690;2023-12-28T11:54:21;13.00;99.90
14170;DHT22;63889;50.596;8.690;2023-12-28T11:56:47;13.00;99.90
14170;DHT22;63889;50.596;8.690;2023-12-28T11:59:12;13.00;99.90
14170;DHT22;63889;50.596;8.690;2023-12-28T12:01:38;13.00;99.90
14170;DHT22;63889;50.596;8.690;2023-12-28T12:04:03;12.90;99.90
14170;DHT22;63889;50.596;8.690;2023-12-28T12:06:29;12.80;99.90
14170;DHT22;63889;50.596;8.690;2023-12-28T12:08:55;12.70;99.90
14170;DHT22;63889;50.596;8.690;2023-12-28T12:11:21;12.70;99.90
14170;DHT22;63889;50.596;8.690;2023-12-28T12:13:49;12.70;99.90
14170;DHT22;63889;50.596;8.690;2023-12-28T12:16:15;12.60;99.90
14170;DHT22;63889;50.596;8.690;2023-12-28T12:18:41;12.50;99.90
14170;DHT22;63889;50.596;8.690;2023-12-28T12:21:06;12.50;99.90
14170;DHT22;63889;50.596;8.690;2023-12-28T12:23:32;12.50;99.90
14170;DHT22;63889;50.596;8.690;2023-12-28T12:25:58;12.60;99.90
14170;DHT22;63889;50.596;8.690;2023-12-28T12:28:23;12.70;99.90
14170;DHT22;63889;50.596;8.690;2023-12-28T12:30:53;12.80;99.90
14170;DHT22;63889;50.596;8.690;2023-12-28T12:33:20;12.90;99.90
14170;DHT22;63889;50.596;8.690;2023-12-28T12:35:46;13.00;99.90
14170;DHT22;63889;50.596;8.690;2023-12-28T12:38:11;13.00;99.90
14170;DHT22;63889;50.596;8.690;2023-12-28T12:40:37;13.10;99.90
14170;DHT22;63889;50.596;8.690;2023-12-28T12:43:03;13.20;99.90
14170;DHT22;63889;50.596;8.690;2023-12-28T12:45:29;13.30;99.90
14170;DHT22;63889;50.596;8.690;2023-12-28T12:47:54;13.50;99.90
14170;DHT22;63889;50.596;8.690;2023-12-28T12:50:20;13.60;99.90
14170;DHT22;63889;50.596;8.690;2023-12-28T12:52:47;13.60;99.90
14170;DHT22;63889;50.596;8.690;2023-12-28T12:55:13;13.60;99.90
14170;DHT22;63889;50.596;8.690;2023-12-28T12:57:40;13.70;99.90
14170;DHT22;63889;50.596;8.690;2023-12-28T13:00:06;13.70;99.90
14170;DHT22;63889;50.596;8.690;2023-12-28T13:02:35;13.70;99.90
14170;DHT22;63889;50.596;8.690;2023-12-28T13:05:04;13.70;99.90
14170;DHT22;63889;50.596;8.690;2023-12-28T13:07:31;13.60;99.90
14170;DHT22;63889;50.596;8.690;2023-12-28T13:09:56;13.50;99.90
14170;DHT22;63889;50.596;8.690;2023-12-28T13:12:22;13.50;99.90
14170;DHT22;63889;50.596;8.690;2023-12-28T13:14:48;13.60;99.90
14170;DHT22;63889;50.596;8.690;2023-12-28T13:17:13;13.70;99.90
14170;DHT22;63889;50.596;8.690;2023-12-28T13:19:39;13.70;99.90
14170;DHT22;63889;50.596;8.690;2023-12-28T13:22:05;13.80;99.90
14170;DHT22;63889;50.596;8.690;2023-12-28T13:24:31;13.90;99.90
14170;DHT22;63889;50.596;8.690;2023-12-28T13:26:56;13.80;99.90
14170;DHT22;63889;50.596;8.690;2023-12-28T13:29:22;13.70;99.90
14170;DHT22;63889;50.596;8.690;2023-12-28T13:31:48;13.50;99.90
14170;DHT22;63889;50.596;8.690;2023-12-28T13:34:16;13.50;99.90
14170;DHT22;63889;50.596;8.690;2023-12-28T13:36:42;13.60;99.90
14170;DHT22;63889;50.596;8.690;2023-12-28T13:39:08;13.70;99.90
14170;DHT22;63889;50.596;8.690;2023-12-28T13:41:37;13.80;99.90
14170;DHT22;63889;50.596;8.690;2023-12-28T13:44:02;13.70;99.90
14170;DHT22;63889;50.596;8.690;2023-12-28T13:46:30;13.60;99.90
14170;DHT22;63889;50.596;8.690;2023-12-28T13:48:56;13.50;99.90
14170;DHT22;63889;50.596;8.690;2023-12-28T13:51:22;13.40;99.90
14170;DHT22;63889;50.596;8.690;2023-12-28T13:53:48;13.40;99.90
14170;DHT22;63889;50.596;8.690;2023-12-28T13:56:13;13.30;99.90
14170;DHT22;63889;50.596;8.690;2023-12-28T13:58:39;13.30;99.90
14170;DHT22;63889;50.596;8.690;2023-12-28T14:01:05;13.40;99.90
14170;DHT22;63889;50.596;8.690;2023-12-28T14:03:30;13.30;99.90
14170;DHT22;63889;50.596;8.690;2023-12-28T14:05:56;13.40;99.90
14170;DHT22;63889;50.596;8.690;2023-12-28T14:08:21;13.30;99.90
14170;DHT22;63889;50.596;8.690;2023-12-28T14:10:47;13.30;99.90
14170;DHT22;63889;50.596;8.690;2023-12-28T14:13:12;13.30;99.90
14170;DHT22;63889;50.596;8.690;2023-12-28T14:15:38;13.10;99.90
14170;DHT22;63889;50.596;8.690;2023-12-28T14:18:04;13.10;99.90
14170;DHT22;63889;50.596;8.690;2023-12-28T14:20:32;13.10;99.90
14170;DHT22;63889;50.596;8.690;2023-12-28T14:22:57;13.10;99.90
14170;DHT22;63889;50.596;8.690;2023-12-28T14:25:23;13.10;99.90
14170;DHT22;63889;50.596;8.690;2023-12-28T14:27:49;13.00;99.90
14170;DHT22;63889;50.596;8.690;2023-12-28T14:30:16;12.90;99.90
14170;DHT22;63889;50.596;8.690;2023-12-28T14:32:42;12.90;99.90
14170;DHT22;63889;50.596;8.690;2023-12-28T14:35:08;12.90;99.90
14170;DHT22;63889;50.596;8.690;2023-12-28T14:37:34;12.80;99.90
14170;DHT22;63889;50.596;8.690;2023-12-28T14:39:59;12.70;99.90
14170;DHT22;63889;50.596;8.690;2023-12-28T14:42:32;12.70;99.90
14170;DHT22;63889;50.596;8.690;2023-12-28T14:44:57;12.70;99.90
14170;DHT22;63889;50.596;8.690;2023-12-28T14:47:23;12.80;99.90
14170;DHT22;63889;50.596;8.690;2023-12-28T14:49:48;12.70;99.90
14170;DHT22;63889;50.596;8.690;2023-12-28T14:52:15;12.60;99.90
14170;DHT22;63889;50.596;8.690;2023-12-28T14:54:40;12.60;99.90
14170;DHT22;63889;50.596;8.690;2023-12-28T14:57:06;12.60;99.90
14170;DHT22;63889;50.596;8.690;2023-12-28T14:59:31;12.60;99.90
14170;DHT22;63889;50.596;8.690;2023-12-28T15:01:57;12.60;99.90
14170;DHT22;63889;50.596;8.690;2023-12-28T15:04:23;12.60;99.90
14170;DHT22;63889;50.596;8.690;2023-12-28T15:06:48;12.60;99.90
14170;DHT22;63889;50.596;8.690;2023-12-28T15:09:14;12.50;99.90
14170;DHT22;63889;50.596;8.690;2023-12-28T15:11:39;12.50;99.90
14170;DHT22;63889;50.596;8.690;2023-12-28T15:14:06;12.50;99.90
14170;DHT22;63889;50.596;8.690;2023-12-28T15:16:31;12.50;99.90
14170;DHT22;63889;50.596;8.690;2023-12-28T15:18:57;12.50;99.90
14170;DHT22;63889;50.596;8.690;2023-12-28T15:21:23;12.50;99.90
14170;DHT22;63889;50.596;8.690;2023-12-28T15:23:49;12.50;99.90
14170;DHT22;63889;50.596;8.690;2023-12-28T15:26:15;12.60;99.90
14170;DHT22;63889;50.596;8.690;2023-12-28T15:28:40;12.50;99.90
14170;DHT22;63889;50.596;8.690;2023-12-28T15:31:06;12.50;99.90
14170;DHT22;63889;50.596;8.690;2023-12-28T15:33:31;12.30;99.90
14170;DHT22;63889;50.596;8.690;2023-12-28T15:35:57;12.40;99.90
14170;DHT22;63889;50.596;8.690;2023-12-28T15:38:22;12.50;99.90
14170;DHT22;63889;50.596;8.690;2023-12-28T15:40:48;12.40;99.90